sensor_id;sensor_type;location;lat;lon;timestamp;P1;durP1;ratioP1;P2;durP2;ratioP2
10550;SDS011;5324;50.684;3.862;2023-03-14T00:01:09;3.47;;;1.83;;
10550;SDS011;5324;50.684;3.862;2023-03-14T00:03:35;6.83;;;1.73;;
10550;SDS011;5324;50.684;3.862;2023-03-14T00:06:02;6.17;;;1.87;;
10550;SDS011;5324;50.684;3.862;2023-03-14T00:08:28;4.07;;;1.50;;
10550;SDS011;5324;50.684;3.862;2023-03-14T00:10:54;5.40;;;2.10;;
10550;SDS011;5324;50.684;3.862;2023-03-14T00:13:20;9.53;;;2.07;;
10550;SDS011;5324;50.684;3.862;2023-03-14T00:15:46;7.67;;;1.80;;
10550;SDS011;5324;50.684;3.862;2023-03-14T00:18:12;4.90;;;1.97;;
10550;SDS011;5324;50.684;3.862;2023-03-14T00:20:38;4.37;;;2.30;;
10550;SDS011;5324;50.684;3.862;2023-03-14T00:23:04;5.00;;;1.50;;
10550;SDS011;5324;50.684;3.862;2023-03-14T00:25:30;4.17;;;1.63;;
10550;SDS011;5324;50.684;3.862;2023-03-14T00:27:56;6.43;;;2.30;;
10550;SDS011;5324;50.684;3.862;2023-03-14T00:30:22;3.57;;;1.77;;
10550;SDS011;5324;50.684;3.862;2023-03-14T00:32:48;6.57;;;1.93;;
10550;SDS011;5324;50.684;3.862;2023-03-14T00:35:14;4.20;;;1.83;;
10550;SDS011;5324;50.684;3.862;2023-03-14T00:37:40;5.60;;;1.80;;
10550;SDS011;5324;50.684;3.862;2023-03-14T00:40:07;4.53;;;1.80;;
10550;SDS011;5324;50.684;3.862;2023-03-14T00:42:33;7.17;;;1.90;;
10550;SDS011;5324;50.684;3.862;2023-03-14T00:44:59;6.40;;;1.73;;
10550;SDS011;5324;50.684;3.862;2023-03-14T00:47:25;6.73;;;1.97;;
10550;SDS011;5324;50.684;3.862;2023-03-14T00:49:51;6.70;;;2.00;;
10550;SDS011;5324;50.684;3.862;2023-03-14T00:52:17;5.30;;;2.37;;
10550;SDS011;5324;50.684;3.862;2023-03-14T00:54:43;6.10;;;2.03;;
10550;SDS011;5324;50.684;3.862;2023-03-14T00:57:09;4.00;;;1.67;;
10550;SDS011;5324;50.684;3.862;2023-03-14T00:59:35;4.30;;;1.90;;
10550;SDS011;5324;50.684;3.862;2023-03-14T01:02:01;7.23;;;1.93;;
10550;SDS011;5324;50.684;3.862;2023-03-14T01:04:27;5.03;;;2.20;;
10550;SDS011;5324;50.684;3.862;2023-03-14T01:06:55;4.40;;;1.93;;
10550;SDS011;5324;50.684;3.862;2023-03-14T01:09:21;3.67;;;1.90;;
10550;SDS011;5324;50.684;3.862;2023-03-14T01:11:47;5.70;;;2.20;;
10550;SDS011;5324;50.684;3.862;2023-03-14T01:14:13;4.20;;;1.43;;
10550;SDS011;5324;50.684;3.862;2023-03-14T01:16:39;2.87;;;1.37;;
10550;SDS011;5324;50.684;3.862;2023-03-14T01:19:06;2.63;;;1.30;;
10550;SDS011;5324;50.684;3.862;2023-03-14T01:21:32;5.07;;;1.50;;
10550;SDS011;5324;50.684;3.862;2023-03-14T01:23:59;2.77;;;1.47;;
10550;SDS011;5324;50.684;3.862;2023-03-14T01:26:26;3.37;;;1.50;;
10550;SDS011;5324;50.684;3.862;2023-03-14T01:28:53;4.10;;;1.60;;
10550;SDS011;5324;50.684;3.862;2023-03-14T01:31:20;3.40;;;1.20;;
10550;SDS011;5324;50.684;3.862;2023-03-14T01:33:46;2.90;;;1.47;;
10550;SDS011;5324;50.684;3.862;2023-03-14T01:36:12;4.70;;;1.03;;
10550;SDS011;5324;50.684;3.862;2023-03-14T01:38:39;7.03;;;1.30;;
10550;SDS011;5324;50.684;3.862;2023-03-14T01:41:05;4.37;;;1.47;;
10550;SDS011;5324;50.684;3.862;2023-03-14T01:43:31;1.53;;;1.00;;
10550;SDS011;5324;50.684;3.862;2023-03-14T01:48:24;2.63;;;0.97;;
10550;SDS011;5324;50.684;3.862;2023-03-14T01:50:51;4.33;;;1.30;;
10550;SDS011;5324;50.684;3.862;2023-03-14T01:53:17;2.93;;;1.43;;
10550;SDS011;5324;50.684;3.862;2023-03-14T01:55:46;1.67;;;1.23;;
10550;SDS011;5324;50.684;3.862;2023-03-14T01:58:12;2.10;;;1.10;;
10550;SDS011;5324;50.684;3.862;2023-03-14T02:00:39;2.80;;;1.27;;
10550;SDS011;5324;50.684;3.862;2023-03-14T02:03:06;3.07;;;1.20;;
10550;SDS011;5324;50.684;3.862;2023-03-14T02:05:37;5.47;;;1.67;;
10550;SDS011;5324;50.684;3.862;2023-03-14T02:08:05;4.33;;;1.60;;
10550;SDS011;5324;50.684;3.862;2023-03-14T02:10:35;6.50;;;2.23;;
10550;SDS011;5324;50.684;3.862;2023-03-14T02:13:02;5.23;;;1.60;;
10550;SDS011;5324;50.684;3.862;2023-03-14T02:15:29;5.33;;;2.10;;
10550;SDS011;5324;50.684;3.862;2023-03-14T02:17:55;4.57;;;2.27;;
10550;SDS011;5324;50.684;3.862;2023-03-14T02:22:57;5.93;;;1.97;;
10550;SDS011;5324;50.684;3.862;2023-03-14T02:25:46;4.03;;;1.97;;
10550;SDS011;5324;50.684;3.862;2023-03-14T02:28:13;4.23;;;1.83;;
10550;SDS011;5324;50.684;3.862;2023-03-14T02:30:40;11.40;;;2.30;;
10550;SDS011;5324;50.684;3.862;2023-03-14T02:33:13;5.10;;;1.70;;
10550;SDS011;5324;50.684;3.862;2023-03-14T02:35:42;6.23;;;2.30;;
10550;SDS011;5324;50.684;3.862;2023-03-14T02:40:52;4.90;;;1.80;;
10550;SDS011;5324;50.684;3.862;2023-03-14T02:43:18;5.23;;;2.13;;
10550;SDS011;5324;50.684;3.862;2023-03-14T02:45:48;5.90;;;2.30;;
10550;SDS011;5324;50.684;3.862;2023-03-14T02:48:15;3.80;;;1.83;;
10550;SDS011;5324;50.684;3.862;2023-03-14T02:50:42;5.37;;;2.03;;
10550;SDS011;5324;50.684;3.862;2023-03-14T02:53:09;8.10;;;2.30;;
10550;SDS011;5324;50.684;3.862;2023-03-14T02:55:36;6.17;;;2.13;;
10550;SDS011;5324;50.684;3.862;2023-03-14T02:58:02;7.47;;;2.57;;
10550;SDS011;5324;50.684;3.862;2023-03-14T03:00:28;6.63;;;2.67;;
10550;SDS011;5324;50.684;3.862;2023-03-14T03:02:55;6.07;;;2.27;;
10550;SDS011;5324;50.684;3.862;2023-03-14T03:05:21;6.87;;;2.37;;
10550;SDS011;5324;50.684;3.862;2023-03-14T03:07:47;3.50;;;1.97;;
10550;SDS011;5324;50.684;3.862;2023-03-14T03:10:13;7.53;;;2.60;;
10550;SDS011;5324;50.684;3.862;2023-03-14T03:12:39;8.73;;;2.40;;
10550;SDS011;5324;50.684;3.862;2023-03-14T03:15:05;5.80;;;2.50;;
10550;SDS011;5324;50.684;3.862;2023-03-14T03:17:31;5.00;;;2.10;;
10550;SDS011;5324;50.684;3.862;2023-03-14T03:19:57;5.47;;;2.63;;
10550;SDS011;5324;50.684;3.862;2023-03-14T03:22:23;2.60;;;1.77;;
10550;SDS011;5324;50.684;3.862;2023-03-14T03:24:49;4.07;;;1.90;;
10550;SDS011;5324;50.684;3.862;2023-03-14T03:27:15;4.40;;;2.20;;
10550;SDS011;5324;50.684;3.862;2023-03-14T03:29:41;8.00;;;1.67;;
10550;SDS011;5324;50.684;3.862;2023-03-14T03:32:07;3.70;;;1.60;;
10550;SDS011;5324;50.684;3.862;2023-03-14T03:34:33;5.57;;;1.67;;
10550;SDS011;5324;50.684;3.862;2023-03-14T03:37:00;3.43;;;1.70;;
10550;SDS011;5324;50.684;3.862;2023-03-14T03:39:26;3.47;;;1.70;;
10550;SDS011;5324;50.684;3.862;2023-03-14T03:41:52;4.00;;;1.73;;
10550;SDS011;5324;50.684;3.862;2023-03-14T03:44:18;5.40;;;2.10;;
10550;SDS011;5324;50.684;3.862;2023-03-14T03:46:43;4.00;;;1.80;;
10550;SDS011;5324;50.684;3.862;2023-03-14T03:49:09;4.53;;;1.57;;
10550;SDS011;5324;50.684;3.862;2023-03-14T03:51:35;4.20;;;1.50;;
10550;SDS011;5324;50.684;3.862;2023-03-14T03:54:01;1.97;;;1.70;;
10550;SDS011;5324;50.684;3.862;2023-03-14T03:56:27;2.37;;;1.20;;
10550;SDS011;5324;50.684;3.862;2023-03-14T03:58:53;4.67;;;1.43;;
10550;SDS011;5324;50.684;3.862;2023-03-14T04:01:19;3.47;;;1.50;;
10550;SDS011;5324;50.684;3.862;2023-03-14T04:03:45;4.20;;;1.80;;
10550;SDS011;5324;50.684;3.862;2023-03-14T04:06:12;1.80;;;1.57;;
10550;SDS011;5324;50.684;3.862;2023-03-14T04:08:38;2.90;;;1.60;;
10550;SDS011;5324;50.684;3.862;2023-03-14T04:11:05;2.77;;;1.77;;
10550;SDS011;5324;50.684;3.862;2023-03-14T04:13:32;3.30;;;1.73;;
10550;SDS011;5324;50.684;3.862;2023-03-14T04:15:58;7.03;;;1.80;;
10550;SDS011;5324;50.684;3.862;2023-03-14T04:18:24;2.13;;;1.50;;
10550;SDS011;5324;50.684;3.862;2023-03-14T04:20:51;2.30;;;1.80;;
10550;SDS011;5324;50.684;3.862;2023-03-14T04:23:17;3.13;;;2.10;;
10550;SDS011;5324;50.684;3.862;2023-03-14T04:25:43;2.57;;;1.50;;
10550;SDS011;5324;50.684;3.862;2023-03-14T04:28:09;5.30;;;1.80;;
10550;SDS011;5324;50.684;3.862;2023-03-14T04:30:35;4.07;;;1.83;;
10550;SDS011;5324;50.684;3.862;2023-03-14T04:33:01;3.53;;;1.63;;
10550;SDS011;5324;50.684;3.862;2023-03-14T04:35:27;2.63;;;1.87;;
10550;SDS011;5324;50.684;3.862;2023-03-14T04:37:53;4.27;;;1.87;;
10550;SDS011;5324;50.684;3.862;2023-03-14T04:40:19;3.07;;;1.53;;
10550;SDS011;5324;50.684;3.862;2023-03-14T04:42:45;3.47;;;1.87;;
10550;SDS011;5324;50.684;3.862;2023-03-14T04:45:11;2.80;;;1.50;;
10550;SDS011;5324;50.684;3.862;2023-03-14T04:47:37;2.33;;;1.60;;
10550;SDS011;5324;50.684;3.862;2023-03-14T04:50:03;3.17;;;1.87;;
10550;SDS011;5324;50.684;3.862;2023-03-14T04:52:29;1.63;;;1.53;;
10550;SDS011;5324;50.684;3.862;2023-03-14T04:54:55;1.50;;;1.40;;
10550;SDS011;5324;50.684;3.862;2023-03-14T04:57:21;1.80;;;1.70;;
10550;SDS011;5324;50.684;3.862;2023-03-14T04:59:47;2.67;;;2.00;;
10550;SDS011;5324;50.684;3.862;2023-03-14T05:02:13;2.40;;;2.20;;
10550;SDS011;5324;50.684;3.862;2023-03-14T05:04:39;2.20;;;1.70;;
10550;SDS011;5324;50.684;3.862;2023-03-14T05:07:05;2.43;;;2.03;;
10550;SDS011;5324;50.684;3.862;2023-03-14T05:09:31;1.83;;;1.60;;
10550;SDS011;5324;50.684;3.862;2023-03-14T05:11:57;2.20;;;1.83;;
10550;SDS011;5324;50.684;3.862;2023-03-14T05:14:23;2.80;;;1.80;;
10550;SDS011;5324;50.684;3.862;2023-03-14T05:16:49;2.23;;;1.80;;
10550;SDS011;5324;50.684;3.862;2023-03-14T05:19:15;1.53;;;1.47;;
10550;SDS011;5324;50.684;3.862;2023-03-14T05:21:41;1.70;;;1.40;;
10550;SDS011;5324;50.684;3.862;2023-03-14T05:24:07;1.63;;;1.53;;
10550;SDS011;5324;50.684;3.862;2023-03-14T05:26:33;1.93;;;1.50;;
10550;SDS011;5324;50.684;3.862;2023-03-14T05:28:59;1.40;;;1.30;;
10550;SDS011;5324;50.684;3.862;2023-03-14T05:31:24;1.70;;;1.40;;
10550;SDS011;5324;50.684;3.862;2023-03-14T05:33:50;2.37;;;1.63;;
10550;SDS011;5324;50.684;3.862;2023-03-14T05:36:16;1.80;;;1.17;;
10550;SDS011;5324;50.684;3.862;2023-03-14T05:38:42;2.10;;;1.30;;
10550;SDS011;5324;50.684;3.862;2023-03-14T05:41:08;1.50;;;1.40;;
10550;SDS011;5324;50.684;3.862;2023-03-14T05:43:34;1.73;;;1.33;;
10550;SDS011;5324;50.684;3.862;2023-03-14T05:46:00;1.60;;;1.47;;
10550;SDS011;5324;50.684;3.862;2023-03-14T05:48:26;1.40;;;1.30;;
10550;SDS011;5324;50.684;3.862;2023-03-14T05:50:56;1.60;;;1.43;;
10550;SDS011;5324;50.684;3.862;2023-03-14T05:53:22;1.80;;;1.60;;
10550;SDS011;5324;50.684;3.862;2023-03-14T05:55:50;2.03;;;1.83;;
10550;SDS011;5324;50.684;3.862;2023-03-14T05:58:16;1.20;;;1.20;;
10550;SDS011;5324;50.684;3.862;2023-03-14T06:00:42;1.60;;;1.37;;
10550;SDS011;5324;50.684;3.862;2023-03-14T06:03:08;2.97;;;1.40;;
10550;SDS011;5324;50.684;3.862;2023-03-14T06:05:34;1.23;;;1.20;;
10550;SDS011;5324;50.684;3.862;2023-03-14T06:08:00;1.23;;;1.10;;
10550;SDS011;5324;50.684;3.862;2023-03-14T06:10:26;1.27;;;1.20;;
10550;SDS011;5324;50.684;3.862;2023-03-14T06:12:52;1.30;;;1.30;;
10550;SDS011;5324;50.684;3.862;2023-03-14T06:15:18;1.33;;;1.10;;
10550;SDS011;5324;50.684;3.862;2023-03-14T06:17:44;1.40;;;1.30;;
10550;SDS011;5324;50.684;3.862;2023-03-14T06:20:10;1.57;;;1.30;;
10550;SDS011;5324;50.684;3.862;2023-03-14T06:22:36;1.00;;;1.00;;
10550;SDS011;5324;50.684;3.862;2023-03-14T06:25:04;1.20;;;1.10;;
10550;SDS011;5324;50.684;3.862;2023-03-14T06:27:30;1.30;;;1.20;;
10550;SDS011;5324;50.684;3.862;2023-03-14T06:29:56;1.63;;;1.47;;
10550;SDS011;5324;50.684;3.862;2023-03-14T06:32:22;1.57;;;1.47;;
10550;SDS011;5324;50.684;3.862;2023-03-14T06:34:48;1.70;;;1.60;;
10550;SDS011;5324;50.684;3.862;2023-03-14T06:37:14;4.37;;;1.77;;
10550;SDS011;5324;50.684;3.862;2023-03-14T06:39:40;2.20;;;1.60;;
10550;SDS011;5324;50.684;3.862;2023-03-14T06:42:06;2.63;;;1.90;;
10550;SDS011;5324;50.684;3.862;2023-03-14T06:44:32;1.90;;;1.63;;
10550;SDS011;5324;50.684;3.862;2023-03-14T06:46:58;2.50;;;2.07;;
10550;SDS011;5324;50.684;3.862;2023-03-14T06:49:24;1.97;;;1.87;;
10550;SDS011;5324;50.684;3.862;2023-03-14T06:51:50;2.50;;;2.20;;
10550;SDS011;5324;50.684;3.862;2023-03-14T06:54:16;2.07;;;1.83;;
10550;SDS011;5324;50.684;3.862;2023-03-14T06:56:42;2.27;;;2.00;;
10550;SDS011;5324;50.684;3.862;2023-03-14T06:59:08;2.33;;;2.13;;
10550;SDS011;5324;50.684;3.862;2023-03-14T07:01:34;3.53;;;2.13;;
10550;SDS011;5324;50.684;3.862;2023-03-14T07:04:00;2.57;;;2.27;;
10550;SDS011;5324;50.684;3.862;2023-03-14T07:06:27;3.50;;;2.53;;
10550;SDS011;5324;50.684;3.862;2023-03-14T07:08:55;2.67;;;2.47;;
10550;SDS011;5324;50.684;3.862;2023-03-14T07:11:22;5.27;;;1.80;;
10550;SDS011;5324;50.684;3.862;2023-03-14T07:13:48;2.40;;;1.90;;
10550;SDS011;5324;50.684;3.862;2023-03-14T07:16:14;2.20;;;1.70;;
10550;SDS011;5324;50.684;3.862;2023-03-14T07:18:40;2.80;;;2.00;;
10550;SDS011;5324;50.684;3.862;2023-03-14T07:21:06;2.33;;;2.10;;
10550;SDS011;5324;50.684;3.862;2023-03-14T07:23:34;3.27;;;2.40;;
10550;SDS011;5324;50.684;3.862;2023-03-14T07:26:00;3.40;;;2.03;;
10550;SDS011;5324;50.684;3.862;2023-03-14T07:28:26;2.53;;;2.00;;
10550;SDS011;5324;50.684;3.862;2023-03-14T07:30:52;4.13;;;2.37;;
10550;SDS011;5324;50.684;3.862;2023-03-14T07:33:19;5.87;;;2.50;;
10550;SDS011;5324;50.684;3.862;2023-03-14T07:35:46;2.80;;;2.10;;
10550;SDS011;5324;50.684;3.862;2023-03-14T07:38:12;5.83;;;2.57;;
10550;SDS011;5324;50.684;3.862;2023-03-14T07:40:38;4.10;;;2.10;;
10550;SDS011;5324;50.684;3.862;2023-03-14T07:43:05;3.20;;;2.27;;
10550;SDS011;5324;50.684;3.862;2023-03-14T07:45:31;4.27;;;2.20;;
10550;SDS011;5324;50.684;3.862;2023-03-14T07:47:57;3.53;;;1.67;;
10550;SDS011;5324;50.684;3.862;2023-03-14T07:50:26;4.63;;;2.27;;
10550;SDS011;5324;50.684;3.862;2023-03-14T07:52:53;4.13;;;2.47;;
10550;SDS011;5324;50.684;3.862;2023-03-14T07:55:19;6.00;;;3.03;;
10550;SDS011;5324;50.684;3.862;2023-03-14T07:57:45;4.37;;;3.33;;
10550;SDS011;5324;50.684;3.862;2023-03-14T08:00:11;7.97;;;3.37;;
10550;SDS011;5324;50.684;3.862;2023-03-14T08:02:39;6.20;;;4.07;;
10550;SDS011;5324;50.684;3.862;2023-03-14T08:05:05;6.90;;;3.30;;
10550;SDS011;5324;50.684;3.862;2023-03-14T08:07:31;4.53;;;3.40;;
10550;SDS011;5324;50.684;3.862;2023-03-14T08:09:57;8.90;;;3.53;;
10550;SDS011;5324;50.684;3.862;2023-03-14T08:12:23;4.70;;;2.80;;
10550;SDS011;5324;50.684;3.862;2023-03-14T08:14:49;6.00;;;3.23;;
10550;SDS011;5324;50.684;3.862;2023-03-14T08:17:15;6.40;;;2.90;;
10550;SDS011;5324;50.684;3.862;2023-03-14T08:19:41;6.20;;;2.93;;
10550;SDS011;5324;50.684;3.862;2023-03-14T08:22:07;6.93;;;2.20;;
10550;SDS011;5324;50.684;3.862;2023-03-14T08:24:33;7.10;;;2.60;;
10550;SDS011;5324;50.684;3.862;2023-03-14T08:26:59;5.07;;;3.10;;
10550;SDS011;5324;50.684;3.862;2023-03-14T08:29:25;5.43;;;3.43;;
10550;SDS011;5324;50.684;3.862;2023-03-14T08:31:51;5.27;;;3.23;;
10550;SDS011;5324;50.684;3.862;2023-03-14T08:34:17;8.33;;;3.40;;
10550;SDS011;5324;50.684;3.862;2023-03-14T08:36:43;5.83;;;2.40;;
10550;SDS011;5324;50.684;3.862;2023-03-14T08:39:09;3.07;;;2.03;;
10550;SDS011;5324;50.684;3.862;2023-03-14T08:41:35;3.60;;;2.13;;
10550;SDS011;5324;50.684;3.862;2023-03-14T08:44:09;3.47;;;2.33;;
10550;SDS011;5324;50.684;3.862;2023-03-14T08:46:38;6.60;;;1.80;;
10550;SDS011;5324;50.684;3.862;2023-03-14T08:49:04;4.97;;;1.63;;
10550;SDS011;5324;50.684;3.862;2023-03-14T08:51:30;5.23;;;2.07;;
10550;SDS011;5324;50.684;3.862;2023-03-14T08:53:56;6.30;;;2.00;;
10550;SDS011;5324;50.684;3.862;2023-03-14T08:56:22;1.57;;;1.40;;
10550;SDS011;5324;50.684;3.862;2023-03-14T08:58:48;6.73;;;1.83;;
10550;SDS011;5324;50.684;3.862;2023-03-14T09:01:14;2.70;;;1.53;;
10550;SDS011;5324;50.684;3.862;2023-03-14T09:03:40;4.13;;;1.70;;
10550;SDS011;5324;50.684;3.862;2023-03-14T09:06:07;3.77;;;1.80;;
10550;SDS011;5324;50.684;3.862;2023-03-14T09:08:34;3.17;;;1.40;;
10550;SDS011;5324;50.684;3.862;2023-03-14T09:11:00;2.70;;;1.57;;
10550;SDS011;5324;50.684;3.862;2023-03-14T09:13:26;4.60;;;1.50;;
10550;SDS011;5324;50.684;3.862;2023-03-14T09:15:53;3.63;;;1.90;;
10550;SDS011;5324;50.684;3.862;2023-03-14T09:18:19;2.23;;;1.70;;
10550;SDS011;5324;50.684;3.862;2023-03-14T09:20:45;5.27;;;2.03;;
10550;SDS011;5324;50.684;3.862;2023-03-14T09:23:11;2.33;;;1.83;;
10550;SDS011;5324;50.684;3.862;2023-03-14T09:25:37;3.53;;;1.90;;
10550;SDS011;5324;50.684;3.862;2023-03-14T09:28:03;3.87;;;2.00;;
10550;SDS011;5324;50.684;3.862;2023-03-14T09:30:29;4.07;;;1.57;;
10550;SDS011;5324;50.684;3.862;2023-03-14T09:32:55;4.73;;;1.67;;
10550;SDS011;5324;50.684;3.862;2023-03-14T09:35:22;2.77;;;1.33;;
10550;SDS011;5324;50.684;3.862;2023-03-14T09:37:48;3.90;;;1.80;;
10550;SDS011;5324;50.684;3.862;2023-03-14T09:40:16;2.57;;;1.37;;
10550;SDS011;5324;50.684;3.862;2023-03-14T09:42:43;5.23;;;1.83;;
10550;SDS011;5324;50.684;3.862;2023-03-14T09:45:54;4.60;;;1.47;;
10550;SDS011;5324;50.684;3.862;2023-03-14T09:47:56;4.83;;;1.53;;
10550;SDS011;5324;50.684;3.862;2023-03-14T09:50:22;2.20;;;1.50;;
10550;SDS011;5324;50.684;3.862;2023-03-14T09:52:49;4.83;;;1.67;;
10550;SDS011;5324;50.684;3.862;2023-03-14T09:55:20;4.93;;;1.37;;
10550;SDS011;5324;50.684;3.862;2023-03-14T09:57:47;3.77;;;1.53;;
10550;SDS011;5324;50.684;3.862;2023-03-14T10:00:17;5.23;;;1.70;;
10550;SDS011;5324;50.684;3.862;2023-03-14T10:02:52;3.00;;;1.30;;
10550;SDS011;5324;50.684;3.862;2023-03-14T10:05:20;1.67;;;1.50;;
10550;SDS011;5324;50.684;3.862;2023-03-14T10:07:46;3.23;;;1.80;;
10550;SDS011;5324;50.684;3.862;2023-03-14T10:10:16;3.20;;;1.80;;
10550;SDS011;5324;50.684;3.862;2023-03-14T10:12:45;3.90;;;2.10;;
10550;SDS011;5324;50.684;3.862;2023-03-14T10:15:12;3.17;;;1.70;;
10550;SDS011;5324;50.684;3.862;2023-03-14T10:17:49;2.90;;;1.93;;
10550;SDS011;5324;50.684;3.862;2023-03-14T10:23:01;2.50;;;1.90;;
10550;SDS011;5324;50.684;3.862;2023-03-14T10:25:29;1.97;;;1.77;;
10550;SDS011;5324;50.684;3.862;2023-03-14T10:27:55;4.27;;;1.80;;
10550;SDS011;5324;50.684;3.862;2023-03-14T10:30:33;2.93;;;2.20;;
10550;SDS011;5324;50.684;3.862;2023-03-14T10:33:07;4.37;;;1.80;;
10550;SDS011;5324;50.684;3.862;2023-03-14T10:35:34;4.70;;;2.07;;
10550;SDS011;5324;50.684;3.862;2023-03-14T10:38:00;5.03;;;1.87;;
10550;SDS011;5324;50.684;3.862;2023-03-14T10:40:28;4.83;;;1.50;;
10550;SDS011;5324;50.684;3.862;2023-03-14T10:42:54;2.87;;;1.40;;
10550;SDS011;5324;50.684;3.862;2023-03-14T10:48:05;4.30;;;1.60;;
10550;SDS011;5324;50.684;3.862;2023-03-14T10:50:32;3.30;;;1.70;;
10550;SDS011;5324;50.684;3.862;2023-03-14T10:53:00;3.10;;;2.00;;
10550;SDS011;5324;50.684;3.862;2023-03-14T10:55:39;2.53;;;1.80;;
10550;SDS011;5324;50.684;3.862;2023-03-14T10:58:05;3.67;;;1.77;;
10550;SDS011;5324;50.684;3.862;2023-03-14T11:00:35;4.17;;;1.93;;
10550;SDS011;5324;50.684;3.862;2023-03-14T11:05:34;2.40;;;1.60;;
10550;SDS011;5324;50.684;3.862;2023-03-14T11:10:50;6.63;;;1.70;;
10550;SDS011;5324;50.684;3.862;2023-03-14T11:26:06;13.67;;;2.20;;
10550;SDS011;5324;50.684;3.862;2023-03-14T11:28:37;6.07;;;2.10;;
10550;SDS011;5324;50.684;3.862;2023-03-14T11:31:10;4.23;;;1.90;;
10550;SDS011;5324;50.684;3.862;2023-03-14T11:33:48;5.73;;;2.03;;
10550;SDS011;5324;50.684;3.862;2023-03-14T11:36:15;2.47;;;1.60;;
10550;SDS011;5324;50.684;3.862;2023-03-14T11:38:49;5.83;;;1.90;;
10550;SDS011;5324;50.684;3.862;2023-03-14T11:43:55;3.97;;;1.93;;
10550;SDS011;5324;50.684;3.862;2023-03-14T11:46:23;4.07;;;1.83;;
10550;SDS011;5324;50.684;3.862;2023-03-14T11:49:01;4.70;;;1.90;;
10550;SDS011;5324;50.684;3.862;2023-03-14T11:51:32;3.23;;;1.97;;
10550;SDS011;5324;50.684;3.862;2023-03-14T11:54:16;5.50;;;2.00;;
10550;SDS011;5324;50.684;3.862;2023-03-14T11:56:46;6.27;;;2.10;;
10550;SDS011;5324;50.684;3.862;2023-03-14T11:59:21;3.77;;;1.83;;
10550;SDS011;5324;50.684;3.862;2023-03-14T12:01:51;3.77;;;2.30;;
10550;SDS011;5324;50.684;3.862;2023-03-14T12:06:49;5.03;;;2.33;;
10550;SDS011;5324;50.684;3.862;2023-03-14T12:09:19;2.20;;;2.00;;
10550;SDS011;5324;50.684;3.862;2023-03-14T12:11:57;3.53;;;2.40;;
10550;SDS011;5324;50.684;3.862;2023-03-14T12:14:25;5.30;;;2.50;;
10550;SDS011;5324;50.684;3.862;2023-03-14T12:17:34;3.00;;;2.77;;
10550;SDS011;5324;50.684;3.862;2023-03-14T12:19:40;3.67;;;2.47;;
10550;SDS011;5324;50.684;3.862;2023-03-14T12:24:46;3.33;;;3.03;;
10550;SDS011;5324;50.684;3.862;2023-03-14T12:27:37;3.17;;;2.87;;
10550;SDS011;5324;50.684;3.862;2023-03-14T12:30:00;3.40;;;2.67;;
10550;SDS011;5324;50.684;3.862;2023-03-14T12:32:26;3.17;;;2.47;;
10550;SDS011;5324;50.684;3.862;2023-03-14T12:34:52;3.63;;;2.60;;
10550;SDS011;5324;50.684;3.862;2023-03-14T12:37:37;2.87;;;2.47;;
10550;SDS011;5324;50.684;3.862;2023-03-14T12:40:17;2.83;;;1.80;;
10550;SDS011;5324;50.684;3.862;2023-03-14T12:42:59;2.03;;;1.93;;
10550;SDS011;5324;50.684;3.862;2023-03-14T12:45:29;3.00;;;1.90;;
10550;SDS011;5324;50.684;3.862;2023-03-14T12:56:00;1.47;;;1.23;;
10550;SDS011;5324;50.684;3.862;2023-03-14T13:01:00;1.03;;;1.03;;
10550;SDS011;5324;50.684;3.862;2023-03-14T13:03:36;1.33;;;1.20;;
10550;SDS011;5324;50.684;3.862;2023-03-14T13:06:03;0.87;;;0.87;;
10550;SDS011;5324;50.684;3.862;2023-03-14T13:10:58;1.00;;;1.00;;
10550;SDS011;5324;50.684;3.862;2023-03-14T13:13:25;1.13;;;1.10;;
10550;SDS011;5324;50.684;3.862;2023-03-14T13:15:55;0.90;;;0.87;;
10550;SDS011;5324;50.684;3.862;2023-03-14T13:21:05;1.50;;;1.40;;
10550;SDS011;5324;50.684;3.862;2023-03-14T13:23:33;0.90;;;0.90;;
10550;SDS011;5324;50.684;3.862;2023-03-14T13:26:00;1.20;;;1.10;;
10550;SDS011;5324;50.684;3.862;2023-03-14T13:28:26;1.13;;;0.97;;
10550;SDS011;5324;50.684;3.862;2023-03-14T13:30:59;0.90;;;0.90;;
10550;SDS011;5324;50.684;3.862;2023-03-14T13:33:26;0.87;;;0.87;;
10550;SDS011;5324;50.684;3.862;2023-03-14T13:35:56;1.07;;;0.97;;
10550;SDS011;5324;50.684;3.862;2023-03-14T13:38:24;0.87;;;0.87;;
10550;SDS011;5324;50.684;3.862;2023-03-14T13:40:51;1.30;;;1.20;;
10550;SDS011;5324;50.684;3.862;2023-03-14T13:43:25;1.13;;;1.13;;
10550;SDS011;5324;50.684;3.862;2023-03-14T13:48:17;0.97;;;0.97;;
10550;SDS011;5324;50.684;3.862;2023-03-14T13:50:54;0.90;;;0.90;;
10550;SDS011;5324;50.684;3.862;2023-03-14T13:53:20;0.90;;;0.90;;
10550;SDS011;5324;50.684;3.862;2023-03-14T13:55:46;1.17;;;1.07;;
10550;SDS011;5324;50.684;3.862;2023-03-14T13:58:18;1.43;;;1.20;;
10550;SDS011;5324;50.684;3.862;2023-03-14T14:00:52;2.63;;;0.90;;
10550;SDS011;5324;50.684;3.862;2023-03-14T14:03:18;1.43;;;1.20;;
10550;SDS011;5324;50.684;3.862;2023-03-14T14:05:44;3.63;;;1.53;;
10550;SDS011;5324;50.684;3.862;2023-03-14T14:08:11;7.67;;;2.03;;
10550;SDS011;5324;50.684;3.862;2023-03-14T14:10:37;4.93;;;1.73;;
10550;SDS011;5324;50.684;3.862;2023-03-14T14:13:04;5.73;;;1.93;;
10550;SDS011;5324;50.684;3.862;2023-03-14T14:15:31;5.43;;;1.93;;
10550;SDS011;5324;50.684;3.862;2023-03-14T14:18:04;10.80;;;2.23;;
10550;SDS011;5324;50.684;3.862;2023-03-14T14:20:32;5.40;;;1.73;;
10550;SDS011;5324;50.684;3.862;2023-03-14T14:23:09;5.67;;;1.93;;
10550;SDS011;5324;50.684;3.862;2023-03-14T14:25:36;6.80;;;2.20;;
10550;SDS011;5324;50.684;3.862;2023-03-14T14:28:16;6.60;;;2.60;;
10550;SDS011;5324;50.684;3.862;2023-03-14T14:30:43;6.10;;;2.00;;
10550;SDS011;5324;50.684;3.862;2023-03-14T14:33:19;8.20;;;2.57;;
10550;SDS011;5324;50.684;3.862;2023-03-14T14:35:50;10.40;;;3.70;;
10550;SDS011;5324;50.684;3.862;2023-03-14T14:38:16;6.83;;;2.30;;
10550;SDS011;5324;50.684;3.862;2023-03-14T14:40:46;6.17;;;2.90;;
10550;SDS011;5324;50.684;3.862;2023-03-14T14:43:15;6.23;;;2.10;;
10550;SDS011;5324;50.684;3.862;2023-03-14T14:45:43;7.67;;;3.07;;
10550;SDS011;5324;50.684;3.862;2023-03-14T14:48:11;10.40;;;2.20;;
10550;SDS011;5324;50.684;3.862;2023-03-14T14:50:38;5.43;;;1.57;;
10550;SDS011;5324;50.684;3.862;2023-03-14T14:55:52;6.37;;;1.30;;
10550;SDS011;5324;50.684;3.862;2023-03-14T14:58:25;3.97;;;1.60;;
10550;SDS011;5324;50.684;3.862;2023-03-14T15:00:53;2.77;;;1.30;;
10550;SDS011;5324;50.684;3.862;2023-03-14T15:03:19;5.43;;;1.90;;
10550;SDS011;5324;50.684;3.862;2023-03-14T15:05:45;5.63;;;1.67;;
10550;SDS011;5324;50.684;3.862;2023-03-14T15:08:11;6.20;;;1.67;;
10550;SDS011;5324;50.684;3.862;2023-03-14T15:10:38;3.10;;;1.53;;
10550;SDS011;5324;50.684;3.862;2023-03-14T15:13:04;5.00;;;2.07;;
10550;SDS011;5324;50.684;3.862;2023-03-14T15:15:30;4.30;;;1.53;;
10550;SDS011;5324;50.684;3.862;2023-03-14T15:17:56;6.63;;;1.87;;
10550;SDS011;5324;50.684;3.862;2023-03-14T15:20:22;3.27;;;1.60;;
10550;SDS011;5324;50.684;3.862;2023-03-14T15:22:49;4.10;;;1.80;;
10550;SDS011;5324;50.684;3.862;2023-03-14T15:25:15;4.07;;;1.93;;
10550;SDS011;5324;50.684;3.862;2023-03-14T15:27:41;4.53;;;1.50;;
10550;SDS011;5324;50.684;3.862;2023-03-14T15:30:14;6.47;;;2.20;;
10550;SDS011;5324;50.684;3.862;2023-03-14T15:32:41;3.80;;;2.00;;
10550;SDS011;5324;50.684;3.862;2023-03-14T15:35:07;9.90;;;2.77;;
10550;SDS011;5324;50.684;3.862;2023-03-14T15:37:33;6.03;;;2.73;;
10550;SDS011;5324;50.684;3.862;2023-03-14T15:40:01;9.93;;;3.43;;
10550;SDS011;5324;50.684;3.862;2023-03-14T15:42:29;9.57;;;2.53;;
10550;SDS011;5324;50.684;3.862;2023-03-14T15:44:55;6.33;;;2.30;;
10550;SDS011;5324;50.684;3.862;2023-03-14T15:47:21;3.47;;;2.17;;
10550;SDS011;5324;50.684;3.862;2023-03-14T15:49:47;4.93;;;2.30;;
10550;SDS011;5324;50.684;3.862;2023-03-14T15:52:13;5.07;;;2.03;;
10550;SDS011;5324;50.684;3.862;2023-03-14T15:54:39;3.77;;;1.53;;
10550;SDS011;5324;50.684;3.862;2023-03-14T15:57:05;3.13;;;1.40;;
10550;SDS011;5324;50.684;3.862;2023-03-14T15:59:31;6.30;;;2.00;;
10550;SDS011;5324;50.684;3.862;2023-03-14T16:01:57;6.67;;;1.87;;